CPX321 Details

Departure: Kansas City International Airport (KMCI)
Arrival: Chicago/Rockford International Airport (KRFD) at N/A
Route: ROYAL9 BODYN MZV RFD
Notes:


Current Weather Information
KMCI 191553Z 15005KT 10SM FEW045 29/24 A3001 RMK AO2 SLP150 T02890239
KRFD 191554Z 05007KT 10SM SCT033 OVC048 24/19 A3005 RMK AO2 SLP170 T02440189